sensor_id;sensor_type;location;lat;lon;timestamp;pressure;altitude;pressure_sealevel;temperature;humidity
77869;BME280;67231;59.144;37.934;2023-08-12T00:01:34;100808.03;;;21.95;70.31
77869;BME280;67231;59.144;37.934;2023-08-12T00:04:00;100799.31;;;21.93;70.55
77869;BME280;67231;59.144;37.934;2023-08-12T00:06:26;100803.44;;;21.89;70.56
77869;BME280;67231;59.144;37.934;2023-08-12T00:08:54;100802.63;;;21.81;70.57
77869;BME280;67231;59.144;37.934;2023-08-12T00:11:20;100795.13;;;21.77;70.79
77869;BME280;67231;59.144;37.934;2023-08-12T00:13:46;100806.56;;;21.72;70.96
77869;BME280;67231;59.144;37.934;2023-08-12T00:16:13;100796.56;;;21.66;71.22
77869;BME280;67231;59.144;37.934;2023-08-12T00:18:39;100803.00;;;21.65;71.22
77869;BME280;67231;59.144;37.934;2023-08-12T00:21:09;100798.66;;;21.64;71.12
77869;BME280;67231;59.144;37.934;2023-08-12T00:23:40;100790.56;;;21.64;71.42
77869;BME280;67231;59.144;37.934;2023-08-12T00:26:07;100781.81;;;21.62;71.54
77869;BME280;67231;59.144;37.934;2023-08-12T00:28:34;100775.59;;;21.61;71.51
77869;BME280;67231;59.144;37.934;2023-08-12T00:31:01;100790.13;;;21.60;71.42
77869;BME280;67231;59.144;37.934;2023-08-12T00:33:27;100800.09;;;21.60;71.92
77869;BME280;67231;59.144;37.934;2023-08-12T00:35:53;100797.59;;;21.58;71.81
77869;BME280;67231;59.144;37.934;2023-08-12T00:38:20;100806.09;;;21.55;72.00
77869;BME280;67231;59.144;37.934;2023-08-12T00:40:47;100805.69;;;21.52;72.29
77869;BME280;67231;59.144;37.934;2023-08-12T00:43:14;100795.50;;;21.54;72.36
77869;BME280;67231;59.144;37.934;2023-08-12T00:45:41;100794.50;;;21.61;71.79
77869;BME280;67231;59.144;37.934;2023-08-12T00:48:08;100791.78;;;21.75;71.85
77869;BME280;67231;59.144;37.934;2023-08-12T00:50:36;100788.47;;;21.86;71.29
77869;BME280;67231;59.144;37.934;2023-08-12T00:53:03;100791.59;;;21.90;70.97
77869;BME280;67231;59.144;37.934;2023-08-12T00:55:33;100784.13;;;21.92;71.20
77869;BME280;67231;59.144;37.934;2023-08-12T00:58:00;100785.59;;;21.94;71.34
77869;BME280;67231;59.144;37.934;2023-08-12T01:00:26;100796.38;;;22.01;71.23
77869;BME280;67231;59.144;37.934;2023-08-12T01:02:53;100781.41;;;22.05;71.17
77869;BME280;67231;59.144;37.934;2023-08-12T01:05:20;100786.38;;;22.08;70.87
77869;BME280;67231;59.144;37.934;2023-08-12T01:07:46;100785.97;;;22.11;70.87
77869;BME280;67231;59.144;37.934;2023-08-12T01:10:13;100785.97;;;22.11;70.97
77869;BME280;67231;59.144;37.934;2023-08-12T01:12:53;100783.06;;;22.06;71.23
77869;BME280;67231;59.144;37.934;2023-08-12T01:15:24;100782.03;;;21.94;71.23
77869;BME280;67231;59.144;37.934;2023-08-12T01:17:53;100784.53;;;21.75;71.75
77869;BME280;67231;59.144;37.934;2023-08-12T01:20:21;100781.81;;;21.62;72.10
77869;BME280;67231;59.144;37.934;2023-08-12T01:23:09;100789.09;;;21.48;72.69
77869;BME280;67231;59.144;37.934;2023-08-12T01:25:36;100787.97;;;21.36;72.67
77869;BME280;67231;59.144;37.934;2023-08-12T01:28:03;100784.66;;;21.27;72.90
77869;BME280;67231;59.144;37.934;2023-08-12T01:30:30;100794.19;;;21.23;73.23
77869;BME280;67231;59.144;37.934;2023-08-12T01:33:18;100790.25;;;21.19;73.46
77869;BME280;67231;59.144;37.934;2023-08-12T01:35:53;100786.28;;;21.15;73.55
77869;BME280;67231;59.144;37.934;2023-08-12T01:38:22;100779.59;;;21.10;73.49
77869;BME280;67231;59.144;37.934;2023-08-12T01:40:52;100778.16;;;21.08;73.85
77869;BME280;67231;59.144;37.934;2023-08-12T01:43:18;100786.25;;;21.08;73.60
77869;BME280;67231;59.144;37.934;2023-08-12T01:45:45;100787.69;;;21.10;73.69
77869;BME280;67231;59.144;37.934;2023-08-12T01:48:11;100790.44;;;21.17;73.34
77869;BME280;67231;59.144;37.934;2023-08-12T01:50:38;100831.97;;;21.23;73.51
77869;BME280;67231;59.144;37.934;2023-08-12T01:53:04;100826.16;;;21.19;73.91
77869;BME280;67231;59.144;37.934;2023-08-12T01:55:30;100853.34;;;21.18;74.19
77869;BME280;67231;59.144;37.934;2023-08-12T01:57:57;100845.44;;;21.16;73.69
77869;BME280;67231;59.144;37.934;2023-08-12T02:00:23;100828.66;;;21.21;73.70
77869;BME280;67231;59.144;37.934;2023-08-12T02:02:49;100836.75;;;21.27;73.74
77869;BME280;67231;59.144;37.934;2023-08-12T02:05:16;100872.91;;;21.33;73.72
77869;BME280;67231;59.144;37.934;2023-08-12T02:07:42;100856.09;;;21.38;73.58
77869;BME280;67231;59.144;37.934;2023-08-12T02:10:10;100844.88;;;21.41;73.33
77869;BME280;67231;59.144;37.934;2023-08-12T02:12:37;100848.28;;;21.50;73.25
77869;BME280;67231;59.144;37.934;2023-08-12T02:15:03;100839.16;;;21.57;73.17
77869;BME280;67231;59.144;37.934;2023-08-12T02:17:33;100841.88;;;21.64;73.16
77869;BME280;67231;59.144;37.934;2023-08-12T02:19:59;100842.09;;;21.69;72.96
77869;BME280;67231;59.144;37.934;2023-08-12T02:22:26;100841.28;;;21.75;73.16
77869;BME280;67231;59.144;37.934;2023-08-12T02:24:52;100835.03;;;21.81;72.83
77869;BME280;67231;59.144;37.934;2023-08-12T02:27:20;100833.38;;;21.87;73.11
77869;BME280;67231;59.144;37.934;2023-08-12T02:29:47;100841.88;;;21.91;72.97
77869;BME280;67231;59.144;37.934;2023-08-12T02:32:13;100839.22;;;22.04;72.78
77869;BME280;67231;59.144;37.934;2023-08-12T02:34:40;100841.28;;;22.15;72.61
77869;BME280;67231;59.144;37.934;2023-08-12T02:37:10;100843.56;;;22.25;72.23
77869;BME280;67231;59.144;37.934;2023-08-12T02:39:38;100823.78;;;22.25;72.00
77869;BME280;67231;59.144;37.934;2023-08-12T02:42:05;100827.56;;;22.30;72.19
77869;BME280;67231;59.144;37.934;2023-08-12T02:44:31;100828.81;;;22.41;72.14
77869;BME280;67231;59.144;37.934;2023-08-12T02:46:58;100832.13;;;22.50;71.92
77869;BME280;67231;59.144;37.934;2023-08-12T02:49:24;100830.84;;;22.59;71.87
77869;BME280;67231;59.144;37.934;2023-08-12T02:51:50;100829.59;;;22.68;71.67
77869;BME280;67231;59.144;37.934;2023-08-12T02:54:17;100831.88;;;22.71;71.66
77869;BME280;67231;59.144;37.934;2023-08-12T02:56:43;100830.59;;;22.74;71.83
77869;BME280;67231;59.144;37.934;2023-08-12T02:59:10;100835.38;;;22.79;71.88
77869;BME280;67231;59.144;37.934;2023-08-12T03:01:36;100833.28;;;22.87;71.66
77869;BME280;67231;59.144;37.934;2023-08-12T03:04:03;100822.00;;;22.97;71.37
77869;BME280;67231;59.144;37.934;2023-08-12T03:06:29;100833.22;;;23.07;71.69
77869;BME280;67231;59.144;37.934;2023-08-12T03:08:56;100818.59;;;23.15;71.09
77869;BME280;67231;59.144;37.934;2023-08-12T03:11:22;100813.38;;;23.20;70.67
77869;BME280;67231;59.144;37.934;2023-08-12T03:13:49;100815.66;;;23.23;69.75
77869;BME280;67231;59.144;37.934;2023-08-12T03:16:15;100814.63;;;23.24;69.55
77869;BME280;67231;59.144;37.934;2023-08-12T03:18:44;100807.31;;;23.25;69.20
77869;BME280;67231;59.144;37.934;2023-08-12T03:21:10;100813.97;;;23.29;69.08
77869;BME280;67231;59.144;37.934;2023-08-12T03:23:37;100806.00;;;23.34;69.06
77869;BME280;67231;59.144;37.934;2023-08-12T03:26:05;100806.41;;;23.38;68.55
77869;BME280;67231;59.144;37.934;2023-08-12T03:28:31;100798.06;;;23.39;68.37
77869;BME280;67231;59.144;37.934;2023-08-12T03:30:58;100793.69;;;23.38;68.50
77869;BME280;67231;59.144;37.934;2023-08-12T03:33:25;100788.47;;;23.37;68.37
77869;BME280;67231;59.144;37.934;2023-08-12T03:35:53;100786.84;;;23.36;68.25
77869;BME280;67231;59.144;37.934;2023-08-12T03:38:19;100788.03;;;23.40;68.07
77869;BME280;67231;59.144;37.934;2023-08-12T03:40:46;100785.69;;;23.50;67.84
77869;BME280;67231;59.144;37.934;2023-08-12T03:43:15;100782.44;;;23.67;67.91
77869;BME280;67231;59.144;37.934;2023-08-12T03:45:43;100785.69;;;23.82;67.48
77869;BME280;67231;59.144;37.934;2023-08-12T03:48:12;100781.81;;;23.96;67.45
77869;BME280;67231;59.144;37.934;2023-08-12T03:50:39;100777.91;;;24.11;66.67
77869;BME280;67231;59.144;37.934;2023-08-12T03:53:06;100772.97;;;24.26;66.65
77869;BME280;67231;59.144;37.934;2023-08-12T03:55:33;100773.03;;;24.38;66.40
77869;BME280;67231;59.144;37.934;2023-08-12T03:58:00;100775.94;;;24.43;65.93
77869;BME280;67231;59.144;37.934;2023-08-12T04:00:28;100771.47;;;24.49;66.32
77869;BME280;67231;59.144;37.934;2023-08-12T04:02:58;100760.75;;;24.54;66.18
77869;BME280;67231;59.144;37.934;2023-08-12T04:05:24;100760.13;;;24.59;65.99
77869;BME280;67231;59.144;37.934;2023-08-12T04:07:51;100768.03;;;24.60;66.35
77869;BME280;67231;59.144;37.934;2023-08-12T04:10:17;100756.06;;;24.68;66.36
77869;BME280;67231;59.144;37.934;2023-08-12T04:12:45;100762.53;;;24.67;66.39
77869;BME280;67231;59.144;37.934;2023-08-12T04:15:11;100760.66;;;24.67;66.60
77869;BME280;67231;59.144;37.934;2023-08-12T04:17:37;100764.78;;;24.70;66.48
77869;BME280;67231;59.144;37.934;2023-08-12T04:20:07;100752.56;;;24.79;66.38
77869;BME280;67231;59.144;37.934;2023-08-12T04:22:35;100756.78;;;24.94;66.04
77869;BME280;67231;59.144;37.934;2023-08-12T04:25:02;100751.16;;;25.07;65.65
77869;BME280;67231;59.144;37.934;2023-08-12T04:27:31;100758.00;;;25.09;65.71
77869;BME280;67231;59.144;37.934;2023-08-12T04:29:59;100751.91;;;25.14;65.78
77869;BME280;67231;59.144;37.934;2023-08-12T04:32:26;100758.72;;;25.35;65.37
77869;BME280;67231;59.144;37.934;2023-08-12T04:34:53;100746.47;;;25.56;64.30
77869;BME280;67231;59.144;37.934;2023-08-12T04:37:20;100755.25;;;25.82;63.59
77869;BME280;67231;59.144;37.934;2023-08-12T04:39:47;100745.69;;;26.03;63.17
77869;BME280;67231;59.144;37.934;2023-08-12T04:42:14;100753.13;;;26.31;62.22
77869;BME280;67231;59.144;37.934;2023-08-12T04:44:40;100745.66;;;26.50;61.35
77869;BME280;67231;59.144;37.934;2023-08-12T04:47:07;100749.31;;;26.97;60.49
77869;BME280;67231;59.144;37.934;2023-08-12T04:49:36;100743.16;;;27.64;58.62
77869;BME280;67231;59.144;37.934;2023-08-12T04:52:03;100745.19;;;28.08;57.53
77869;BME280;67231;59.144;37.934;2023-08-12T04:54:30;100747.66;;;28.93;55.34
77869;BME280;67231;59.144;37.934;2023-08-12T04:56:57;100745.25;;;29.93;53.77
77869;BME280;67231;59.144;37.934;2023-08-12T04:59:23;100751.44;;;30.79;51.76
77869;BME280;67231;59.144;37.934;2023-08-12T05:01:50;100753.97;;;30.96;50.75
77869;BME280;67231;59.144;37.934;2023-08-12T05:04:16;100749.06;;;31.03;50.38
77869;BME280;67231;59.144;37.934;2023-08-12T05:06:43;100742.06;;;30.60;50.69
77869;BME280;67231;59.144;37.934;2023-08-12T05:09:11;100746.94;;;30.42;50.65
77869;BME280;67231;59.144;37.934;2023-08-12T05:11:37;100745.00;;;29.95;51.92
77869;BME280;67231;59.144;37.934;2023-08-12T05:14:04;100748.09;;;29.71;51.50
77869;BME280;67231;59.144;37.934;2023-08-12T05:16:30;100745.81;;;30.43;49.98
77869;BME280;67231;59.144;37.934;2023-08-12T05:18:57;100740.81;;;30.30;49.92
77869;BME280;67231;59.144;37.934;2023-08-12T05:21:24;100739.50;;;29.90;50.37
77869;BME280;67231;59.144;37.934;2023-08-12T05:23:51;100734.81;;;29.85;51.09
77869;BME280;67231;59.144;37.934;2023-08-12T05:26:17;100721.06;;;30.23;49.98
77869;BME280;67231;59.144;37.934;2023-08-12T05:28:44;100728.84;;;30.46;49.57
77869;BME280;67231;59.144;37.934;2023-08-12T05:31:10;100726.69;;;30.54;48.91
77869;BME280;67231;59.144;37.934;2023-08-12T05:33:37;100730.94;;;30.29;49.05
77869;BME280;67231;59.144;37.934;2023-08-12T05:36:04;100728.13;;;30.13;49.07
77869;BME280;67231;59.144;37.934;2023-08-12T05:38:30;100723.75;;;30.18;49.24
77869;BME280;67231;59.144;37.934;2023-08-12T05:40:57;100721.38;;;30.37;48.78
77869;BME280;67231;59.144;37.934;2023-08-12T05:43:23;100722.66;;;30.72;47.40
77869;BME280;67231;59.144;37.934;2023-08-12T05:45:50;100719.03;;;30.61;47.20
77869;BME280;67231;59.144;37.934;2023-08-12T05:48:20;100713.53;;;30.40;47.77
77869;BME280;67231;59.144;37.934;2023-08-12T05:50:47;100711.56;;;29.88;48.80
77869;BME280;67231;59.144;37.934;2023-08-12T05:53:16;100715.38;;;29.49;49.17
77869;BME280;67231;59.144;37.934;2023-08-12T05:55:53;100720.94;;;29.27;49.78
77869;BME280;67231;59.144;37.934;2023-08-12T05:58:53;100715.25;;;29.34;50.26
77869;BME280;67231;59.144;37.934;2023-08-12T06:01:20;100720.66;;;29.61;49.52
77869;BME280;67231;59.144;37.934;2023-08-12T06:03:47;100710.22;;;29.53;49.34
77869;BME280;67231;59.144;37.934;2023-08-12T06:06:13;100713.56;;;29.60;49.25
77869;BME280;67231;59.144;37.934;2023-08-12T06:08:40;100716.03;;;30.57;47.13
77869;BME280;67231;59.144;37.934;2023-08-12T06:11:07;100714.47;;;32.76;43.78
77869;BME280;67231;59.144;37.934;2023-08-12T06:13:34;100722.13;;;33.87;41.68
77869;BME280;67231;59.144;37.934;2023-08-12T06:16:02;100722.56;;;35.05;39.90
77869;BME280;67231;59.144;37.934;2023-08-12T06:18:42;100723.44;;;36.13;38.27
77869;BME280;67231;59.144;37.934;2023-08-12T06:21:14;100728.75;;;36.65;37.70
77869;BME280;67231;59.144;37.934;2023-08-12T06:25:17;100734.00;;;37.48;37.41
77869;BME280;67231;59.144;37.934;2023-08-12T06:27:47;100731.00;;;38.07;35.54
77869;BME280;67231;59.144;37.934;2023-08-12T06:30:18;100732.25;;;38.33;34.42
77869;BME280;67231;59.144;37.934;2023-08-12T06:32:45;100727.19;;;38.26;34.82
77869;BME280;67231;59.144;37.934;2023-08-12T06:35:13;100735.09;;;38.68;34.14
77869;BME280;67231;59.144;37.934;2023-08-12T06:37:59;100743.34;;;38.24;34.61
77869;BME280;67231;59.144;37.934;2023-08-12T06:40:26;100744.97;;;37.62;34.92
77869;BME280;67231;59.144;37.934;2023-08-12T06:42:54;100739.72;;;37.29;35.80
77869;BME280;67231;59.144;37.934;2023-08-12T06:45:21;100733.81;;;37.22;35.91
77869;BME280;67231;59.144;37.934;2023-08-12T06:47:48;100745.28;;;36.93;36.23
77869;BME280;67231;59.144;37.934;2023-08-12T06:50:15;100741.69;;;36.28;37.35
77869;BME280;67231;59.144;37.934;2023-08-12T06:52:41;100731.88;;;35.61;38.70
77869;BME280;67231;59.144;37.934;2023-08-12T06:55:08;100733.31;;;35.26;38.85
77869;BME280;67231;59.144;37.934;2023-08-12T06:57:35;100730.91;;;35.19;39.03
77869;BME280;67231;59.144;37.934;2023-08-12T07:00:02;100720.16;;;35.17;39.02
77869;BME280;67231;59.144;37.934;2023-08-12T07:02:32;100730.97;;;35.66;37.81
77869;BME280;67231;59.144;37.934;2023-08-12T07:04:58;100736.34;;;36.18;37.14
77869;BME280;67231;59.144;37.934;2023-08-12T07:07:25;100744.00;;;36.21;36.83
77869;BME280;67231;59.144;37.934;2023-08-12T07:09:52;100728.56;;;36.06;37.01
77869;BME280;67231;59.144;37.934;2023-08-12T07:12:18;100742.19;;;36.94;36.24
77869;BME280;67231;59.144;37.934;2023-08-12T07:14:46;100743.66;;;37.60;35.01
77869;BME280;67231;59.144;37.934;2023-08-12T07:17:13;100741.44;;;37.70;34.93
77869;BME280;67231;59.144;37.934;2023-08-12T07:19:43;100741.34;;;37.30;34.97
77869;BME280;67231;59.144;37.934;2023-08-12T07:22:10;100736.63;;;37.08;35.15
77869;BME280;67231;59.144;37.934;2023-08-12T07:24:38;100731.91;;;37.09;35.28
77869;BME280;67231;59.144;37.934;2023-08-12T07:27:11;100736.31;;;36.59;35.98
77869;BME280;67231;59.144;37.934;2023-08-12T07:29:38;100732.16;;;35.92;36.87
77869;BME280;67231;59.144;37.934;2023-08-12T07:32:07;100726.78;;;34.83;38.35
77869;BME280;67231;59.144;37.934;2023-08-12T07:34:35;100715.16;;;34.62;38.83
77869;BME280;67231;59.144;37.934;2023-08-12T07:37:04;100721.94;;;34.70;39.01
77869;BME280;67231;59.144;37.934;2023-08-12T07:39:34;100717.81;;;35.44;38.42
77869;BME280;67231;59.144;37.934;2023-08-12T07:42:11;100719.78;;;36.32;36.58
77869;BME280;67231;59.144;37.934;2023-08-12T07:44:39;100723.53;;;37.45;35.46
77869;BME280;67231;59.144;37.934;2023-08-12T07:47:08;100723.31;;;38.53;33.42
77869;BME280;67231;59.144;37.934;2023-08-12T07:49:37;100723.69;;;38.95;33.39
77869;BME280;67231;59.144;37.934;2023-08-12T07:52:05;100718.94;;;39.22;32.85
77869;BME280;67231;59.144;37.934;2023-08-12T07:54:38;100726.75;;;39.94;31.96
77869;BME280;67231;59.144;37.934;2023-08-12T07:57:07;100725.50;;;40.51;31.47
77869;BME280;67231;59.144;37.934;2023-08-12T07:59:37;100745.59;;;40.99;31.26
77869;BME280;67231;59.144;37.934;2023-08-12T08:02:04;100740.28;;;40.34;31.90
77869;BME280;67231;59.144;37.934;2023-08-12T08:04:35;100719.16;;;39.73;32.42
77869;BME280;67231;59.144;37.934;2023-08-12T08:07:02;100720.03;;;39.47;32.74
77869;BME280;67231;59.144;37.934;2023-08-12T08:09:28;100704.06;;;38.48;33.44
77869;BME280;67231;59.144;37.934;2023-08-12T08:11:56;100707.78;;;37.54;34.93
77869;BME280;67231;59.144;37.934;2023-08-12T08:14:23;100703.00;;;36.64;35.43
77869;BME280;67231;59.144;37.934;2023-08-12T08:16:50;100718.19;;;36.67;35.34
77869;BME280;67231;59.144;37.934;2023-08-12T08:19:17;100717.25;;;37.08;33.87
77869;BME280;67231;59.144;37.934;2023-08-12T08:21:44;100726.34;;;37.23;33.81
77869;BME280;67231;59.144;37.934;2023-08-12T08:24:11;100710.66;;;37.72;33.67
77869;BME280;67231;59.144;37.934;2023-08-12T08:26:39;100720.19;;;38.37;33.02
77869;BME280;67231;59.144;37.934;2023-08-12T08:29:09;100734.69;;;38.34;31.84
77869;BME280;67231;59.144;37.934;2023-08-12T08:31:35;100727.16;;;37.23;33.30
77869;BME280;67231;59.144;37.934;2023-08-12T08:34:02;100724.03;;;36.52;33.30
77869;BME280;67231;59.144;37.934;2023-08-12T08:36:28;100724.66;;;36.21;33.65
77869;BME280;67231;59.144;37.934;2023-08-12T08:38:55;100722.25;;;36.05;33.95
77869;BME280;67231;59.144;37.934;2023-08-12T08:41:23;100713.09;;;35.11;35.55
77869;BME280;67231;59.144;37.934;2023-08-12T08:43:52;100717.38;;;34.22;36.96
77869;BME280;67231;59.144;37.934;2023-08-12T08:46:19;100711.75;;;33.79;38.10
77869;BME280;67231;59.144;37.934;2023-08-12T08:48:48;100708.03;;;33.65;38.87
77869;BME280;67231;59.144;37.934;2023-08-12T08:51:15;100710.47;;;33.66;38.70
77869;BME280;67231;59.144;37.934;2023-08-12T08:53:42;100705.81;;;33.32;38.81
77869;BME280;67231;59.144;37.934;2023-08-12T08:56:09;100695.50;;;33.19;39.63
77869;BME280;67231;59.144;37.934;2023-08-12T08:58:38;100698.88;;;33.06;40.02
77869;BME280;67231;59.144;37.934;2023-08-12T09:01:07;100706.81;;;32.62;40.28
77869;BME280;67231;59.144;37.934;2023-08-12T09:03:36;100699.34;;;32.13;41.48
77869;BME280;67231;59.144;37.934;2023-08-12T09:06:04;100698.25;;;32.04;41.56
77869;BME280;67231;59.144;37.934;2023-08-12T09:08:34;100701.28;;;32.02;40.72
77869;BME280;67231;59.144;37.934;2023-08-12T09:11:02;100701.06;;;31.88;41.46
77869;BME280;67231;59.144;37.934;2023-08-12T09:13:29;100698.88;;;31.70;41.48
77869;BME280;67231;59.144;37.934;2023-08-12T09:15:56;100695.56;;;31.78;41.81
77869;BME280;67231;59.144;37.934;2023-08-12T09:18:22;100680.81;;;31.69;41.95
77869;BME280;67231;59.144;37.934;2023-08-12T09:20:53;100687.94;;;31.39;42.39
77869;BME280;67231;59.144;37.934;2023-08-12T09:23:19;100687.66;;;31.35;42.57
77869;BME280;67231;59.144;37.934;2023-08-12T09:25:46;100680.81;;;31.28;42.79
77869;BME280;67231;59.144;37.934;2023-08-12T09:28:12;100687.94;;;31.08;42.16
77869;BME280;67231;59.144;37.934;2023-08-12T09:30:39;100694.50;;;31.07;42.90
77869;BME280;67231;59.144;37.934;2023-08-12T09:33:07;100680.25;;;31.26;42.36
77869;BME280;67231;59.144;37.934;2023-08-12T09:35:36;100686.81;;;31.35;42.26
77869;BME280;67231;59.144;37.934;2023-08-12T09:38:13;100680.25;;;31.31;42.61
77869;BME280;67231;59.144;37.934;2023-08-12T09:40:40;100688.47;;;31.41;42.61
77869;BME280;67231;59.144;37.934;2023-08-12T09:43:08;100684.91;;;31.40;42.91
77869;BME280;67231;59.144;37.934;2023-08-12T09:45:35;100692.31;;;31.25;43.05
77869;BME280;67231;59.144;37.934;2023-08-12T09:48:02;100674.22;;;31.03;43.55
77869;BME280;67231;59.144;37.934;2023-08-12T09:50:28;100686.28;;;30.97;43.66
77869;BME280;67231;59.144;37.934;2023-08-12T09:52:55;100682.94;;;30.90;43.42
77869;BME280;67231;59.144;37.934;2023-08-12T09:55:24;100680.78;;;30.92;43.40
77869;BME280;67231;59.144;37.934;2023-08-12T09:57:52;100668.72;;;30.98;43.55
77869;BME280;67231;59.144;37.934;2023-08-12T10:00:21;100672.56;;;30.92;43.74
77869;BME280;67231;59.144;37.934;2023-08-12T10:02:51;100674.72;;;30.95;44.35
77869;BME280;67231;59.144;37.934;2023-08-12T10:05:24;100676.94;;;30.98;44.61
77869;BME280;67231;59.144;37.934;2023-08-12T10:07:53;100673.66;;;30.96;45.02
77869;BME280;67231;59.144;37.934;2023-08-12T10:10:20;100675.06;;;31.03;45.26
77869;BME280;67231;59.144;37.934;2023-08-12T10:12:48;100672.56;;;31.07;44.87
77869;BME280;67231;59.144;37.934;2023-08-12T10:15:15;100673.69;;;31.06;44.69
77869;BME280;67231;59.144;37.934;2023-08-12T10:17:42;100684.63;;;30.96;45.22
77869;BME280;67231;59.144;37.934;2023-08-12T10:20:19;100684.59;;;30.91;46.31
77869;BME280;67231;59.144;37.934;2023-08-12T10:22:46;100685.13;;;30.93;45.78
77869;BME280;67231;59.144;37.934;2023-08-12T10:25:13;100683.53;;;30.97;45.79
77869;BME280;67231;59.144;37.934;2023-08-12T10:27:41;100682.94;;;30.95;46.26
77869;BME280;67231;59.144;37.934;2023-08-12T10:30:08;100677.19;;;30.81;46.25
77869;BME280;67231;59.144;37.934;2023-08-12T10:32:36;100676.34;;;30.70;46.51
77869;BME280;67231;59.144;37.934;2023-08-12T10:35:03;100684.56;;;30.65;47.27
77869;BME280;67231;59.144;37.934;2023-08-12T10:37:32;100682.03;;;30.48;47.77
77869;BME280;67231;59.144;37.934;2023-08-12T10:40:03;100685.50;;;30.28;47.90
77869;BME280;67231;59.144;37.934;2023-08-12T10:42:47;100676.19;;;30.29;48.19
77869;BME280;67231;59.144;37.934;2023-08-12T10:45:16;100684.44;;;30.34;48.16
77869;BME280;67231;59.144;37.934;2023-08-12T10:47:49;100683.84;;;30.32;48.26
77869;BME280;67231;59.144;37.934;2023-08-12T10:50:21;100689.00;;;30.13;47.82
77869;BME280;67231;59.144;37.934;2023-08-12T10:52:52;100688.16;;;30.12;48.20
77869;BME280;67231;59.144;37.934;2023-08-12T10:55:21;100693.91;;;30.11;47.97
77869;BME280;67231;59.144;37.934;2023-08-12T10:57:49;100697.09;;;29.92;48.43
77869;BME280;67231;59.144;37.934;2023-08-12T11:00:23;100705.44;;;29.75;49.39
77869;BME280;67231;59.144;37.934;2023-08-12T11:02:56;100695.53;;;29.64;49.39
77869;BME280;67231;59.144;37.934;2023-08-12T11:05:24;100706.97;;;29.61;49.77
77869;BME280;67231;59.144;37.934;2023-08-12T11:07:59;100706.94;;;29.56;49.98
77869;BME280;67231;59.144;37.934;2023-08-12T11:10:33;100701.47;;;29.56;49.72
77869;BME280;67231;59.144;37.934;2023-08-12T11:13:01;100716.31;;;29.65;49.97
77869;BME280;67231;59.144;37.934;2023-08-12T11:15:35;100716.91;;;29.72;49.35
77869;BME280;67231;59.144;37.934;2023-08-12T11:18:13;100713.16;;;29.78;48.70
77869;BME280;67231;59.144;37.934;2023-08-12T11:20:41;100714.84;;;29.85;48.87
77869;BME280;67231;59.144;37.934;2023-08-12T11:23:08;100712.66;;;29.87;48.62
77869;BME280;67231;59.144;37.934;2023-08-12T11:25:38;100708.56;;;29.84;48.83
77869;BME280;67231;59.144;37.934;2023-08-12T11:28:05;100720.50;;;29.78;48.45
77869;BME280;67231;59.144;37.934;2023-08-12T11:30:33;100713.34;;;29.72;48.32
77869;BME280;67231;59.144;37.934;2023-08-12T11:33:01;100712.47;;;29.66;48.83
77869;BME280;67231;59.144;37.934;2023-08-12T11:35:28;100717.41;;;29.64;48.90
77869;BME280;67231;59.144;37.934;2023-08-12T11:37:57;100723.38;;;29.56;48.64
77869;BME280;67231;59.144;37.934;2023-08-12T11:40:26;100716.16;;;29.45;49.18
77869;BME280;67231;59.144;37.934;2023-08-12T11:42:54;100720.91;;;29.22;50.12
77869;BME280;67231;59.144;37.934;2023-08-12T11:45:22;100720.72;;;29.06;50.62
77869;BME280;67231;59.144;37.934;2023-08-12T11:47:49;100725.53;;;28.94;50.37
77869;BME280;67231;59.144;37.934;2023-08-12T11:50:24;100717.50;;;28.87;51.07
77869;BME280;67231;59.144;37.934;2023-08-12T11:52:53;100721.66;;;28.90;50.83
77869;BME280;67231;59.144;37.934;2023-08-12T11:55:20;100721.44;;;28.97;50.91
77869;BME280;67231;59.144;37.934;2023-08-12T11:57:47;100718.25;;;29.05;51.22
77869;BME280;67231;59.144;37.934;2023-08-12T12:00:14;100719.09;;;29.05;50.84
77869;BME280;67231;59.144;37.934;2023-08-12T12:02:45;100726.91;;;28.97;51.06
77869;BME280;67231;59.144;37.934;2023-08-12T12:05:13;100726.09;;;28.96;51.09
77869;BME280;67231;59.144;37.934;2023-08-12T12:07:40;100723.22;;;28.86;51.75
77869;BME280;67231;59.144;37.934;2023-08-12T12:10:07;100709.47;;;28.76;51.66
77869;BME280;67231;59.144;37.934;2023-08-12T12:12:35;100719.59;;;28.75;52.04
77869;BME280;67231;59.144;37.934;2023-08-12T12:15:03;100718.75;;;28.75;52.30
77869;BME280;67231;59.144;37.934;2023-08-12T12:17:38;100708.72;;;28.80;52.50
77869;BME280;67231;59.144;37.934;2023-08-12T12:20:06;100714.19;;;28.80;52.45
77869;BME280;67231;59.144;37.934;2023-08-12T12:22:33;100713.03;;;28.76;52.22
77869;BME280;67231;59.144;37.934;2023-08-12T12:25:06;100719.78;;;28.68;52.08
77869;BME280;67231;59.144;37.934;2023-08-12T12:27:33;100712.94;;;28.66;52.14
77869;BME280;67231;59.144;37.934;2023-08-12T12:30:00;100716.97;;;28.63;52.01
77869;BME280;67231;59.144;37.934;2023-08-12T12:32:26;100717.16;;;28.57;51.88
77869;BME280;67231;59.144;37.934;2023-08-12T12:34:53;100720.72;;;28.57;51.62
77869;BME280;67231;59.144;37.934;2023-08-12T12:37:21;100710.06;;;28.56;52.80
77869;BME280;67231;59.144;37.934;2023-08-12T12:39:47;100715.84;;;28.59;52.40
77869;BME280;67231;59.144;37.934;2023-08-12T12:42:14;100716.94;;;28.58;51.98
77869;BME280;67231;59.144;37.934;2023-08-12T12:44:41;100714.19;;;28.58;51.61
77869;BME280;67231;59.144;37.934;2023-08-12T12:47:07;100701.75;;;28.67;50.92